sensor_id;sensor_type;location;lat;lon;timestamp;temperature;humidity
4727;DHT22;2377;51.734;8.950;2023-08-30T00:01:29;12.50;99.90
4727;DHT22;2377;51.734;8.950;2023-08-30T00:03:58;12.40;99.90
4727;DHT22;2377;51.734;8.950;2023-08-30T00:06:26;12.40;99.90
4727;DHT22;2377;51.734;8.950;2023-08-30T00:08:53;12.30;99.90
4727;DHT22;2377;51.734;8.950;2023-08-30T00:11:22;12.10;99.90
4727;DHT22;2377;51.734;8.950;2023-08-30T00:13:49;12.10;99.90
4727;DHT22;2377;51.734;8.950;2023-08-30T00:16:16;12.10;99.90
4727;DHT22;2377;51.734;8.950;2023-08-30T00:18:43;12.10;99.90
4727;DHT22;2377;51.734;8.950;2023-08-30T00:21:12;12.10;99.90
4727;DHT22;2377;51.734;8.950;2023-08-30T00:23:39;12.10;99.90
4727;DHT22;2377;51.734;8.950;2023-08-30T00:26:06;12.00;99.90
4727;DHT22;2377;51.734;8.950;2023-08-30T00:28:33;12.00;99.90
4727;DHT22;2377;51.734;8.950;2023-08-30T00:31:01;12.00;99.90
4727;DHT22;2377;51.734;8.950;2023-08-30T00:33:28;12.00;99.90
4727;DHT22;2377;51.734;8.950;2023-08-30T00:35:56;12.00;99.90
4727;DHT22;2377;51.734;8.950;2023-08-30T00:38:26;12.00;99.90
4727;DHT22;2377;51.734;8.950;2023-08-30T00:40:54;11.90;99.90
4727;DHT22;2377;51.734;8.950;2023-08-30T00:43:21;11.90;99.90
4727;DHT22;2377;51.734;8.950;2023-08-30T00:45:48;11.80;99.90
4727;DHT22;2377;51.734;8.950;2023-08-30T00:48:17;11.80;99.90
4727;DHT22;2377;51.734;8.950;2023-08-30T00:50:47;11.80;99.90
4727;DHT22;2377;51.734;8.950;2023-08-30T00:53:14;11.80;99.90
4727;DHT22;2377;51.734;8.950;2023-08-30T00:55:44;11.80;99.90
4727;DHT22;2377;51.734;8.950;2023-08-30T00:58:11;11.80;99.90
4727;DHT22;2377;51.734;8.950;2023-08-30T01:00:39;11.70;99.90
4727;DHT22;2377;51.734;8.950;2023-08-30T01:03:07;11.70;99.90
4727;DHT22;2377;51.734;8.950;2023-08-30T01:05:34;11.60;99.90
4727;DHT22;2377;51.734;8.950;2023-08-30T01:08:02;11.60;99.90
4727;DHT22;2377;51.734;8.950;2023-08-30T01:10:38;11.60;99.90
4727;DHT22;2377;51.734;8.950;2023-08-30T01:13:18;11.60;99.90
4727;DHT22;2377;51.734;8.950;2023-08-30T01:15:48;11.60;99.90
4727;DHT22;2377;51.734;8.950;2023-08-30T01:18:18;11.60;99.90
4727;DHT22;2377;51.734;8.950;2023-08-30T01:20:47;11.60;99.90
4727;DHT22;2377;51.734;8.950;2023-08-30T01:23:24;11.60;99.90
4727;DHT22;2377;51.734;8.950;2023-08-30T01:26:10;11.60;99.90
4727;DHT22;2377;51.734;8.950;2023-08-30T01:28:42;11.60;99.90
4727;DHT22;2377;51.734;8.950;2023-08-30T01:31:11;11.50;99.90
4727;DHT22;2377;51.734;8.950;2023-08-30T01:33:40;11.40;99.90
4727;DHT22;2377;51.734;8.950;2023-08-30T01:36:08;11.40;99.90
4727;DHT22;2377;51.734;8.950;2023-08-30T01:38:37;11.40;99.90
4727;DHT22;2377;51.734;8.950;2023-08-30T01:41:05;11.40;99.90
4727;DHT22;2377;51.734;8.950;2023-08-30T01:43:33;11.40;99.90
4727;DHT22;2377;51.734;8.950;2023-08-30T01:46:04;11.50;99.90
4727;DHT22;2377;51.734;8.950;2023-08-30T01:48:34;11.50;99.90
4727;DHT22;2377;51.734;8.950;2023-08-30T01:51:03;11.50;99.90
4727;DHT22;2377;51.734;8.950;2023-08-30T01:53:31;11.60;99.90
4727;DHT22;2377;51.734;8.950;2023-08-30T01:55:59;11.60;99.90
4727;DHT22;2377;51.734;8.950;2023-08-30T01:58:26;11.60;1.00
4727;DHT22;2377;51.734;8.950;2023-08-30T02:00:53;11.60;1.00
4727;DHT22;2377;51.734;8.950;2023-08-30T02:03:23;11.70;1.00
4727;DHT22;2377;51.734;8.950;2023-08-30T02:05:57;11.70;1.00
4727;DHT22;2377;51.734;8.950;2023-08-30T02:08:36;11.70;99.90
4727;DHT22;2377;51.734;8.950;2023-08-30T02:11:11;11.80;99.90
4727;DHT22;2377;51.734;8.950;2023-08-30T02:13:44;11.80;99.90
4727;DHT22;2377;51.734;8.950;2023-08-30T02:16:13;11.80;99.90
4727;DHT22;2377;51.734;8.950;2023-08-30T02:18:45;11.90;99.90
4727;DHT22;2377;51.734;8.950;2023-08-30T02:21:13;11.90;1.00
4727;DHT22;2377;51.734;8.950;2023-08-30T02:23:40;11.80;1.00
4727;DHT22;2377;51.734;8.950;2023-08-30T02:26:07;11.90;99.90
4727;DHT22;2377;51.734;8.950;2023-08-30T02:28:35;11.90;1.00
4727;DHT22;2377;51.734;8.950;2023-08-30T02:31:04;12.00;1.00
4727;DHT22;2377;51.734;8.950;2023-08-30T02:33:31;12.00;1.00
4727;DHT22;2377;51.734;8.950;2023-08-30T02:35:59;12.00;1.00
4727;DHT22;2377;51.734;8.950;2023-08-30T02:38:26;12.00;1.00
4727;DHT22;2377;51.734;8.950;2023-08-30T02:40:54;12.00;1.00
4727;DHT22;2377;51.734;8.950;2023-08-30T02:43:21;12.10;1.00
4727;DHT22;2377;51.734;8.950;2023-08-30T02:45:49;12.10;1.00
4727;DHT22;2377;51.734;8.950;2023-08-30T02:48:17;12.10;1.00
4727;DHT22;2377;51.734;8.950;2023-08-30T02:50:44;12.10;1.00
4727;DHT22;2377;51.734;8.950;2023-08-30T02:53:13;12.10;1.00
4727;DHT22;2377;51.734;8.950;2023-08-30T02:55:40;12.10;1.00
4727;DHT22;2377;51.734;8.950;2023-08-30T02:58:07;12.10;1.00
4727;DHT22;2377;51.734;8.950;2023-08-30T03:00:34;12.10;1.00
4727;DHT22;2377;51.734;8.950;2023-08-30T03:03:01;12.20;1.00
4727;DHT22;2377;51.734;8.950;2023-08-30T03:05:28;12.20;1.00
4727;DHT22;2377;51.734;8.950;2023-08-30T03:07:56;12.20;1.00
4727;DHT22;2377;51.734;8.950;2023-08-30T03:10:24;12.30;1.00
4727;DHT22;2377;51.734;8.950;2023-08-30T03:12:51;12.30;1.00
4727;DHT22;2377;51.734;8.950;2023-08-30T03:15:19;12.30;1.00
4727;DHT22;2377;51.734;8.950;2023-08-30T03:17:46;12.30;1.00
4727;DHT22;2377;51.734;8.950;2023-08-30T03:20:13;12.30;1.00
4727;DHT22;2377;51.734;8.950;2023-08-30T03:22:41;12.30;1.00
4727;DHT22;2377;51.734;8.950;2023-08-30T03:25:09;12.40;1.00
4727;DHT22;2377;51.734;8.950;2023-08-30T03:27:37;12.40;1.00
4727;DHT22;2377;51.734;8.950;2023-08-30T03:30:06;12.40;1.00
4727;DHT22;2377;51.734;8.950;2023-08-30T03:32:33;12.50;1.00
4727;DHT22;2377;51.734;8.950;2023-08-30T03:35:01;12.50;1.00
4727;DHT22;2377;51.734;8.950;2023-08-30T03:37:29;12.50;1.00
4727;DHT22;2377;51.734;8.950;2023-08-30T03:39:56;12.50;1.00
4727;DHT22;2377;51.734;8.950;2023-08-30T03:42:23;12.50;1.00
4727;DHT22;2377;51.734;8.950;2023-08-30T03:44:51;12.60;1.00
4727;DHT22;2377;51.734;8.950;2023-08-30T03:47:18;12.60;1.00
4727;DHT22;2377;51.734;8.950;2023-08-30T03:49:46;12.60;1.00
4727;DHT22;2377;51.734;8.950;2023-08-30T03:52:13;12.60;1.00
4727;DHT22;2377;51.734;8.950;2023-08-30T03:54:40;12.60;1.00
4727;DHT22;2377;51.734;8.950;2023-08-30T03:57:07;12.60;1.00
4727;DHT22;2377;51.734;8.950;2023-08-30T03:59:34;12.60;1.00
4727;DHT22;2377;51.734;8.950;2023-08-30T04:02:03;12.60;1.00
4727;DHT22;2377;51.734;8.950;2023-08-30T04:04:30;12.60;1.00
4727;DHT22;2377;51.734;8.950;2023-08-30T04:06:58;12.60;1.00
4727;DHT22;2377;51.734;8.950;2023-08-30T04:09:26;12.60;1.00
4727;DHT22;2377;51.734;8.950;2023-08-30T04:11:53;12.70;1.00
4727;DHT22;2377;51.734;8.950;2023-08-30T04:14:20;12.70;1.00
4727;DHT22;2377;51.734;8.950;2023-08-30T04:16:47;12.70;1.00
4727;DHT22;2377;51.734;8.950;2023-08-30T04:19:16;12.80;1.00
4727;DHT22;2377;51.734;8.950;2023-08-30T04:21:43;12.80;1.00
4727;DHT22;2377;51.734;8.950;2023-08-30T04:24:10;12.80;1.00
4727;DHT22;2377;51.734;8.950;2023-08-30T04:26:37;12.80;1.00
4727;DHT22;2377;51.734;8.950;2023-08-30T04:29:05;12.80;1.00
4727;DHT22;2377;51.734;8.950;2023-08-30T04:31:32;12.80;1.00
4727;DHT22;2377;51.734;8.950;2023-08-30T04:33:59;12.80;1.00
4727;DHT22;2377;51.734;8.950;2023-08-30T04:36:28;12.80;1.00
4727;DHT22;2377;51.734;8.950;2023-08-30T04:38:55;12.80;1.00
4727;DHT22;2377;51.734;8.950;2023-08-30T04:41:22;12.90;1.00
4727;DHT22;2377;51.734;8.950;2023-08-30T04:43:49;12.80;1.00
4727;DHT22;2377;51.734;8.950;2023-08-30T04:46:16;12.90;1.00
4727;DHT22;2377;51.734;8.950;2023-08-30T04:48:43;12.90;1.00
4727;DHT22;2377;51.734;8.950;2023-08-30T04:51:10;12.90;1.00
4727;DHT22;2377;51.734;8.950;2023-08-30T04:53:39;12.90;1.00
4727;DHT22;2377;51.734;8.950;2023-08-30T04:56:13;12.90;1.00
4727;DHT22;2377;51.734;8.950;2023-08-30T04:58:40;12.90;1.00
4727;DHT22;2377;51.734;8.950;2023-08-30T05:01:07;12.90;1.00
4727;DHT22;2377;51.734;8.950;2023-08-30T05:03:35;12.90;1.00
4727;DHT22;2377;51.734;8.950;2023-08-30T05:06:02;12.90;1.00
4727;DHT22;2377;51.734;8.950;2023-08-30T05:08:29;12.80;1.00
4727;DHT22;2377;51.734;8.950;2023-08-30T05:10:58;12.80;1.00
4727;DHT22;2377;51.734;8.950;2023-08-30T05:13:25;12.80;1.00
4727;DHT22;2377;51.734;8.950;2023-08-30T05:15:52;12.80;1.00
4727;DHT22;2377;51.734;8.950;2023-08-30T05:18:19;12.80;1.00
4727;DHT22;2377;51.734;8.950;2023-08-30T05:20:47;12.80;1.00
4727;DHT22;2377;51.734;8.950;2023-08-30T05:23:14;12.90;1.00
4727;DHT22;2377;51.734;8.950;2023-08-30T05:25:41;12.90;1.00
4727;DHT22;2377;51.734;8.950;2023-08-30T05:28:10;13.00;1.00
4727;DHT22;2377;51.734;8.950;2023-08-30T05:30:40;13.00;1.00
4727;DHT22;2377;51.734;8.950;2023-08-30T05:33:08;13.00;1.00
4727;DHT22;2377;51.734;8.950;2023-08-30T05:35:35;13.00;1.00
4727;DHT22;2377;51.734;8.950;2023-08-30T05:38:03;13.10;1.00
4727;DHT22;2377;51.734;8.950;2023-08-30T05:40:30;13.10;1.00
4727;DHT22;2377;51.734;8.950;2023-08-30T05:42:57;13.10;1.00
4727;DHT22;2377;51.734;8.950;2023-08-30T05:45:29;13.10;1.00
4727;DHT22;2377;51.734;8.950;2023-08-30T05:47:56;13.20;1.00
4727;DHT22;2377;51.734;8.950;2023-08-30T05:50:23;13.20;1.00
4727;DHT22;2377;51.734;8.950;2023-08-30T05:52:50;13.20;1.00
4727;DHT22;2377;51.734;8.950;2023-08-30T05:55:17;13.20;1.00
4727;DHT22;2377;51.734;8.950;2023-08-30T05:57:44;13.20;1.00
4727;DHT22;2377;51.734;8.950;2023-08-30T06:00:12;13.30;1.00
4727;DHT22;2377;51.734;8.950;2023-08-30T06:02:41;13.20;1.00
4727;DHT22;2377;51.734;8.950;2023-08-30T06:05:09;13.20;1.00
4727;DHT22;2377;51.734;8.950;2023-08-30T06:07:36;13.20;1.00
4727;DHT22;2377;51.734;8.950;2023-08-30T06:10:04;13.30;1.00
4727;DHT22;2377;51.734;8.950;2023-08-30T06:12:34;13.30;1.00
4727;DHT22;2377;51.734;8.950;2023-08-30T06:15:02;13.30;1.00
4727;DHT22;2377;51.734;8.950;2023-08-30T06:17:30;13.40;1.00
4727;DHT22;2377;51.734;8.950;2023-08-30T06:19:58;13.40;1.00
4727;DHT22;2377;51.734;8.950;2023-08-30T06:22:26;13.50;1.00
4727;DHT22;2377;51.734;8.950;2023-08-30T06:24:53;13.50;1.00
4727;DHT22;2377;51.734;8.950;2023-08-30T06:27:20;13.50;1.00
4727;DHT22;2377;51.734;8.950;2023-08-30T06:29:47;13.60;1.00
4727;DHT22;2377;51.734;8.950;2023-08-30T06:32:14;13.60;1.00
4727;DHT22;2377;51.734;8.950;2023-08-30T06:34:42;13.60;1.00
4727;DHT22;2377;51.734;8.950;2023-08-30T06:37:11;13.60;1.00
4727;DHT22;2377;51.734;8.950;2023-08-30T06:39:38;13.70;1.00
4727;DHT22;2377;51.734;8.950;2023-08-30T06:42:05;13.80;1.00
4727;DHT22;2377;51.734;8.950;2023-08-30T06:44:33;13.90;1.00
4727;DHT22;2377;51.734;8.950;2023-08-30T06:47:00;14.00;1.00
4727;DHT22;2377;51.734;8.950;2023-08-30T06:49:28;14.00;1.00
4727;DHT22;2377;51.734;8.950;2023-08-30T06:51:57;14.10;1.00
4727;DHT22;2377;51.734;8.950;2023-08-30T06:54:26;14.20;1.00
4727;DHT22;2377;51.734;8.950;2023-08-30T06:56:57;14.20;1.00
4727;DHT22;2377;51.734;8.950;2023-08-30T06:59:25;14.30;1.00
4727;DHT22;2377;51.734;8.950;2023-08-30T07:01:52;14.40;1.00
4727;DHT22;2377;51.734;8.950;2023-08-30T07:04:20;14.50;1.00
4727;DHT22;2377;51.734;8.950;2023-08-30T07:06:47;14.60;1.00
4727;DHT22;2377;51.734;8.950;2023-08-30T07:09:14;14.60;1.00
4727;DHT22;2377;51.734;8.950;2023-08-30T07:11:43;14.70;1.00
4727;DHT22;2377;51.734;8.950;2023-08-30T07:14:11;14.80;1.00
4727;DHT22;2377;51.734;8.950;2023-08-30T07:16:39;14.90;1.00
4727;DHT22;2377;51.734;8.950;2023-08-30T07:19:07;15.00;1.00
4727;DHT22;2377;51.734;8.950;2023-08-30T07:21:35;15.10;1.00
4727;DHT22;2377;51.734;8.950;2023-08-30T07:24:05;15.20;1.00
4727;DHT22;2377;51.734;8.950;2023-08-30T07:26:33;15.40;1.00
4727;DHT22;2377;51.734;8.950;2023-08-30T07:29:02;15.50;1.00
4727;DHT22;2377;51.734;8.950;2023-08-30T07:31:31;15.50;1.00
4727;DHT22;2377;51.734;8.950;2023-08-30T07:33:59;15.60;1.00
4727;DHT22;2377;51.734;8.950;2023-08-30T07:36:26;15.80;1.00
4727;DHT22;2377;51.734;8.950;2023-08-30T07:38:54;15.90;1.00
4727;DHT22;2377;51.734;8.950;2023-08-30T07:41:21;16.00;1.00
4727;DHT22;2377;51.734;8.950;2023-08-30T07:43:48;16.00;99.90
4727;DHT22;2377;51.734;8.950;2023-08-30T07:46:17;16.10;1.00
4727;DHT22;2377;51.734;8.950;2023-08-30T07:48:44;16.10;1.00
4727;DHT22;2377;51.734;8.950;2023-08-30T07:51:11;16.20;99.90
4727;DHT22;2377;51.734;8.950;2023-08-30T07:53:38;16.30;99.90
4727;DHT22;2377;51.734;8.950;2023-08-30T07:56:05;16.30;99.90
4727;DHT22;2377;51.734;8.950;2023-08-30T07:58:33;16.50;99.90
4727;DHT22;2377;51.734;8.950;2023-08-30T08:01:00;16.50;99.90
4727;DHT22;2377;51.734;8.950;2023-08-30T08:03:28;16.60;99.90
4727;DHT22;2377;51.734;8.950;2023-08-30T08:05:58;16.60;99.90
4727;DHT22;2377;51.734;8.950;2023-08-30T08:08:26;16.70;99.90
4727;DHT22;2377;51.734;8.950;2023-08-30T08:10:53;16.80;99.90
4727;DHT22;2377;51.734;8.950;2023-08-30T08:13:20;16.90;99.90
4727;DHT22;2377;51.734;8.950;2023-08-30T08:15:47;17.00;99.90
4727;DHT22;2377;51.734;8.950;2023-08-30T08:18:14;17.10;99.90
4727;DHT22;2377;51.734;8.950;2023-08-30T08:20:43;17.10;99.90
4727;DHT22;2377;51.734;8.950;2023-08-30T08:23:10;17.10;99.90
4727;DHT22;2377;51.734;8.950;2023-08-30T08:25:37;17.30;99.90
4727;DHT22;2377;51.734;8.950;2023-08-30T08:28:05;17.40;99.90
4727;DHT22;2377;51.734;8.950;2023-08-30T08:30:32;17.50;99.90
4727;DHT22;2377;51.734;8.950;2023-08-30T08:32:59;17.60;99.90
4727;DHT22;2377;51.734;8.950;2023-08-30T08:35:26;17.70;99.90
4727;DHT22;2377;51.734;8.950;2023-08-30T08:37:55;17.80;99.90
4727;DHT22;2377;51.734;8.950;2023-08-30T08:40:22;17.90;99.90
4727;DHT22;2377;51.734;8.950;2023-08-30T08:42:49;18.10;99.90
4727;DHT22;2377;51.734;8.950;2023-08-30T08:45:17;18.10;99.90
4727;DHT22;2377;51.734;8.950;2023-08-30T08:47:47;18.20;99.90
4727;DHT22;2377;51.734;8.950;2023-08-30T08:50:15;18.30;99.90
4727;DHT22;2377;51.734;8.950;2023-08-30T08:52:44;18.40;99.90
4727;DHT22;2377;51.734;8.950;2023-08-30T08:55:13;18.50;99.90
4727;DHT22;2377;51.734;8.950;2023-08-30T08:57:42;18.60;99.90
4727;DHT22;2377;51.734;8.950;2023-08-30T09:00:11;18.70;99.90
4727;DHT22;2377;51.734;8.950;2023-08-30T09:02:41;18.80;99.90
4727;DHT22;2377;51.734;8.950;2023-08-30T09:05:10;18.90;99.90
4727;DHT22;2377;51.734;8.950;2023-08-30T09:07:37;19.00;99.90
4727;DHT22;2377;51.734;8.950;2023-08-30T09:10:05;19.00;99.90
4727;DHT22;2377;51.734;8.950;2023-08-30T09:12:35;19.10;99.90
4727;DHT22;2377;51.734;8.950;2023-08-30T09:15:03;19.30;99.90
4727;DHT22;2377;51.734;8.950;2023-08-30T09:17:37;19.50;99.90
4727;DHT22;2377;51.734;8.950;2023-08-30T09:20:07;19.60;99.90
4727;DHT22;2377;51.734;8.950;2023-08-30T09:22:38;19.60;99.90
4727;DHT22;2377;51.734;8.950;2023-08-30T09:25:07;19.50;99.90
4727;DHT22;2377;51.734;8.950;2023-08-30T09:27:37;19.50;99.90
4727;DHT22;2377;51.734;8.950;2023-08-30T09:30:08;19.50;99.90
4727;DHT22;2377;51.734;8.950;2023-08-30T09:32:40;19.50;99.90
4727;DHT22;2377;51.734;8.950;2023-08-30T09:35:08;19.60;99.90
4727;DHT22;2377;51.734;8.950;2023-08-30T09:37:36;19.80;99.90
4727;DHT22;2377;51.734;8.950;2023-08-30T09:40:05;19.90;99.90
4727;DHT22;2377;51.734;8.950;2023-08-30T09:42:34;20.00;99.90
4727;DHT22;2377;51.734;8.950;2023-08-30T09:45:17;20.10;99.90
4727;DHT22;2377;51.734;8.950;2023-08-30T09:47:47;20.20;99.90
4727;DHT22;2377;51.734;8.950;2023-08-30T09:50:17;20.30;99.90
4727;DHT22;2377;51.734;8.950;2023-08-30T09:52:46;20.30;99.90
4727;DHT22;2377;51.734;8.950;2023-08-30T09:55:14;20.50;99.90
4727;DHT22;2377;51.734;8.950;2023-08-30T09:57:44;20.50;99.90
4727;DHT22;2377;51.734;8.950;2023-08-30T10:00:12;20.60;99.90
4727;DHT22;2377;51.734;8.950;2023-08-30T10:02:41;20.60;99.90
4727;DHT22;2377;51.734;8.950;2023-08-30T10:05:10;20.60;99.90
4727;DHT22;2377;51.734;8.950;2023-08-30T10:07:38;20.60;99.90
4727;DHT22;2377;51.734;8.950;2023-08-30T10:10:06;20.60;99.90
4727;DHT22;2377;51.734;8.950;2023-08-30T10:12:34;20.80;99.90
4727;DHT22;2377;51.734;8.950;2023-08-30T10:15:05;20.80;99.90
4727;DHT22;2377;51.734;8.950;2023-08-30T10:17:33;20.80;99.90
4727;DHT22;2377;51.734;8.950;2023-08-30T10:20:04;20.80;99.90
4727;DHT22;2377;51.734;8.950;2023-08-30T10:22:35;20.80;99.90
4727;DHT22;2377;51.734;8.950;2023-08-30T10:25:07;20.60;99.90
4727;DHT22;2377;51.734;8.950;2023-08-30T10:27:41;20.50;99.90
4727;DHT22;2377;51.734;8.950;2023-08-30T10:30:12;20.60;99.90
4727;DHT22;2377;51.734;8.950;2023-08-30T10:32:43;20.80;99.90
4727;DHT22;2377;51.734;8.950;2023-08-30T10:35:12;20.90;99.90
4727;DHT22;2377;51.734;8.950;2023-08-30T10:37:41;21.00;99.90
4727;DHT22;2377;51.734;8.950;2023-08-30T10:40:09;21.00;75.60
4727;DHT22;2377;51.734;8.950;2023-08-30T10:42:36;21.00;47.20
4727;DHT22;2377;51.734;8.950;2023-08-30T10:45:05;21.10;29.10
4727;DHT22;2377;51.734;8.950;2023-08-30T10:47:36;21.10;59.80
4727;DHT22;2377;51.734;8.950;2023-08-30T10:50:05;21.00;41.00
4727;DHT22;2377;51.734;8.950;2023-08-30T10:52:34;21.10;27.60
4727;DHT22;2377;51.734;8.950;2023-08-30T10:55:05;21.00;26.40
4727;DHT22;2377;51.734;8.950;2023-08-30T10:57:33;20.70;17.30
4727;DHT22;2377;51.734;8.950;2023-08-30T11:00:05;20.70;12.60
4727;DHT22;2377;51.734;8.950;2023-08-30T11:02:37;20.80;15.20
4727;DHT22;2377;51.734;8.950;2023-08-30T11:05:06;20.90;1.00
4727;DHT22;2377;51.734;8.950;2023-08-30T11:07:35;20.90;2.40
4727;DHT22;2377;51.734;8.950;2023-08-30T11:10:04;20.80;1.00
4727;DHT22;2377;51.734;8.950;2023-08-30T11:12:32;20.80;7.70
4727;DHT22;2377;51.734;8.950;2023-08-30T11:15:01;20.80;6.70
4727;DHT22;2377;51.734;8.950;2023-08-30T11:17:29;21.10;14.00
4727;DHT22;2377;51.734;8.950;2023-08-30T11:20:07;21.20;1.00
4727;DHT22;2377;51.734;8.950;2023-08-30T11:22:36;21.30;1.00
4727;DHT22;2377;51.734;8.950;2023-08-30T11:25:05;21.40;1.00
4727;DHT22;2377;51.734;8.950;2023-08-30T11:27:32;21.40;1.00
4727;DHT22;2377;51.734;8.950;2023-08-30T11:30:00;21.60;1.00
4727;DHT22;2377;51.734;8.950;2023-08-30T11:32:31;21.50;1.00
4727;DHT22;2377;51.734;8.950;2023-08-30T11:34:59;21.40;1.00
4727;DHT22;2377;51.734;8.950;2023-08-30T11:37:28;21.10;1.00
4727;DHT22;2377;51.734;8.950;2023-08-30T11:39:55;20.90;1.00
4727;DHT22;2377;51.734;8.950;2023-08-30T11:42:23;21.00;1.00
4727;DHT22;2377;51.734;8.950;2023-08-30T11:44:51;21.10;1.00
4727;DHT22;2377;51.734;8.950;2023-08-30T11:47:19;21.40;1.00
4727;DHT22;2377;51.734;8.950;2023-08-30T11:49:48;21.50;1.00
4727;DHT22;2377;51.734;8.950;2023-08-30T11:52:16;21.50;1.00
4727;DHT22;2377;51.734;8.950;2023-08-30T11:54:47;21.60;1.00
4727;DHT22;2377;51.734;8.950;2023-08-30T11:57:15;21.60;1.00
4727;DHT22;2377;51.734;8.950;2023-08-30T11:59:43;21.50;1.00
4727;DHT22;2377;51.734;8.950;2023-08-30T12:02:12;21.40;1.00
4727;DHT22;2377;51.734;8.950;2023-08-30T12:04:40;21.20;1.00
4727;DHT22;2377;51.734;8.950;2023-08-30T12:07:08;21.10;1.00
4727;DHT22;2377;51.734;8.950;2023-08-30T12:09:36;21.20;1.00
4727;DHT22;2377;51.734;8.950;2023-08-30T12:12:09;21.30;1.00
4727;DHT22;2377;51.734;8.950;2023-08-30T12:14:37;21.50;1.00
4727;DHT22;2377;51.734;8.950;2023-08-30T12:17:04;21.60;1.00
4727;DHT22;2377;51.734;8.950;2023-08-30T12:19:34;21.60;1.00
4727;DHT22;2377;51.734;8.950;2023-08-30T12:22:05;21.60;1.00
4727;DHT22;2377;51.734;8.950;2023-08-30T12:24:43;21.50;1.00
4727;DHT22;2377;51.734;8.950;2023-08-30T12:27:12;21.50;1.00
4727;DHT22;2377;51.734;8.950;2023-08-30T12:29:40;21.50;1.00
4727;DHT22;2377;51.734;8.950;2023-08-30T12:32:08;21.30;1.00
4727;DHT22;2377;51.734;8.950;2023-08-30T12:34:35;21.30;1.00
4727;DHT22;2377;51.734;8.950;2023-08-30T12:37:04;21.30;1.00
4727;DHT22;2377;51.734;8.950;2023-08-30T12:39:31;21.50;1.00
4727;DHT22;2377;51.734;8.950;2023-08-30T12:41:58;21.60;1.00
4727;DHT22;2377;51.734;8.950;2023-08-30T12:44:27;21.80;1.00
4727;DHT22;2377;51.734;8.950;2023-08-30T12:46:54;21.90;1.00
4727;DHT22;2377;51.734;8.950;2023-08-30T12:49:22;21.80;1.00
4727;DHT22;2377;51.734;8.950;2023-08-30T12:51:49;21.70;1.00
4727;DHT22;2377;51.734;8.950;2023-08-30T12:54:16;21.60;1.00
4727;DHT22;2377;51.734;8.950;2023-08-30T12:56:43;21.50;1.00
4727;DHT22;2377;51.734;8.950;2023-08-30T12:59:10;21.50;1.00
4727;DHT22;2377;51.734;8.950;2023-08-30T13:01:39;21.40;1.00
4727;DHT22;2377;51.734;8.950;2023-08-30T13:04:06;21.30;1.00
4727;DHT22;2377;51.734;8.950;2023-08-30T13:06:33;21.30;1.00
4727;DHT22;2377;51.734;8.950;2023-08-30T13:09:00;21.30;1.00
4727;DHT22;2377;51.734;8.950;2023-08-30T13:11:29;21.30;1.00
4727;DHT22;2377;51.734;8.950;2023-08-30T13:13:58;21.30;1.00
4727;DHT22;2377;51.734;8.950;2023-08-30T13:16:25;21.10;1.00
4727;DHT22;2377;51.734;8.950;2023-08-30T13:18:53;21.00;6.00
4727;DHT22;2377;51.734;8.950;2023-08-30T13:21:21;20.80;3.20
4727;DHT22;2377;51.734;8.950;2023-08-30T13:23:48;20.60;11.40
4727;DHT22;2377;51.734;8.950;2023-08-30T13:26:15;20.60;14.60
4727;DHT22;2377;51.734;8.950;2023-08-30T13:28:43;20.60;11.20
4727;DHT22;2377;51.734;8.950;2023-08-30T13:31:10;20.60;5.30
4727;DHT22;2377;51.734;8.950;2023-08-30T13:33:37;20.60;14.10
4727;DHT22;2377;51.734;8.950;2023-08-30T13:36:06;20.50;11.20
4727;DHT22;2377;51.734;8.950;2023-08-30T13:38:33;20.40;19.50
4727;DHT22;2377;51.734;8.950;2023-08-30T13:41:00;20.30;25.50
4727;DHT22;2377;51.734;8.950;2023-08-30T13:43:29;20.10;29.20
4727;DHT22;2377;51.734;8.950;2023-08-30T13:45:57;20.10;32.70
4727;DHT22;2377;51.734;8.950;2023-08-30T13:48:25;20.10;46.50
4727;DHT22;2377;51.734;8.950;2023-08-30T13:50:52;20.10;49.70
4727;DHT22;2377;51.734;8.950;2023-08-30T13:53:21;20.10;58.20
4727;DHT22;2377;51.734;8.950;2023-08-30T13:55:48;20.10;42.30
4727;DHT22;2377;51.734;8.950;2023-08-30T13:58:15;20.10;34.30
4727;DHT22;2377;51.734;8.950;2023-08-30T14:00:43;20.00;51.10
4727;DHT22;2377;51.734;8.950;2023-08-30T14:03:11;19.90;99.90
4727;DHT22;2377;51.734;8.950;2023-08-30T14:05:39;19.80;99.90
4727;DHT22;2377;51.734;8.950;2023-08-30T14:08:06;19.80;99.90
4727;DHT22;2377;51.734;8.950;2023-08-30T14:10:35;19.60;99.90
4727;DHT22;2377;51.734;8.950;2023-08-30T14:13:03;19.40;99.90
4727;DHT22;2377;51.734;8.950;2023-08-30T14:15:30;19.30;99.90
4727;DHT22;2377;51.734;8.950;2023-08-30T14:17:57;19.20;99.90
4727;DHT22;2377;51.734;8.950;2023-08-30T14:20:24;19.10;99.90
4727;DHT22;2377;51.734;8.950;2023-08-30T14:22:51;19.10;99.90
4727;DHT22;2377;51.734;8.950;2023-08-30T14:25:19;19.10;99.90
4727;DHT22;2377;51.734;8.950;2023-08-30T14:27:47;19.10;99.90
4727;DHT22;2377;51.734;8.950;2023-08-30T14:30:15;19.00;99.90
4727;DHT22;2377;51.734;8.950;2023-08-30T14:32:42;18.90;99.90
4727;DHT22;2377;51.734;8.950;2023-08-30T14:35:10;18.80;99.90
4727;DHT22;2377;51.734;8.950;2023-08-30T14:37:38;18.80;99.90
4727;DHT22;2377;51.734;8.950;2023-08-30T14:40:06;18.60;99.90
4727;DHT22;2377;51.734;8.950;2023-08-30T14:42:34;18.40;99.90
4727;DHT22;2377;51.734;8.950;2023-08-30T14:45:03;18.20;99.90
4727;DHT22;2377;51.734;8.950;2023-08-30T14:47:32;18.10;99.90
4727;DHT22;2377;51.734;8.950;2023-08-30T14:50:01;18.00;99.90
4727;DHT22;2377;51.734;8.950;2023-08-30T14:52:29;18.00;99.90
4727;DHT22;2377;51.734;8.950;2023-08-30T14:54:57;17.80;99.90
4727;DHT22;2377;51.734;8.950;2023-08-30T14:57:24;17.80;99.90
4727;DHT22;2377;51.734;8.950;2023-08-30T14:59:52;17.70;99.90
4727;DHT22;2377;51.734;8.950;2023-08-30T15:02:21;17.80;99.90
4727;DHT22;2377;51.734;8.950;2023-08-30T15:04:48;17.80;99.90
4727;DHT22;2377;51.734;8.950;2023-08-30T15:07:16;17.60;99.90
4727;DHT22;2377;51.734;8.950;2023-08-30T15:09:44;17.60;99.90
4727;DHT22;2377;51.734;8.950;2023-08-30T15:12:11;17.40;99.90
4727;DHT22;2377;51.734;8.950;2023-08-30T15:14:38;17.40;99.90
4727;DHT22;2377;51.734;8.950;2023-08-30T15:17:07;17.30;99.90
4727;DHT22;2377;51.734;8.950;2023-08-30T15:19:36;17.30;99.90
4727;DHT22;2377;51.734;8.950;2023-08-30T15:22:04;17.20;99.90
4727;DHT22;2377;51.734;8.950;2023-08-30T15:24:31;17.20;99.90
4727;DHT22;2377;51.734;8.950;2023-08-30T15:26:58;17.20;99.90
4727;DHT22;2377;51.734;8.950;2023-08-30T15:29:25;17.20;99.90
4727;DHT22;2377;51.734;8.950;2023-08-30T15:31:52;17.20;99.90
4727;DHT22;2377;51.734;8.950;2023-08-30T15:34:20;17.30;99.90
4727;DHT22;2377;51.734;8.950;2023-08-30T15:36:49;17.30;99.90
4727;DHT22;2377;51.734;8.950;2023-08-30T15:39:16;17.20;99.90
4727;DHT22;2377;51.734;8.950;2023-08-30T15:41:44;17.20;99.90
4727;DHT22;2377;51.734;8.950;2023-08-30T15:44:12;17.10;99.90
4727;DHT22;2377;51.734;8.950;2023-08-30T15:46:39;17.10;99.90
4727;DHT22;2377;51.734;8.950;2023-08-30T15:49:08;16.90;99.90
4727;DHT22;2377;51.734;8.950;2023-08-30T15:51:35;16.80;99.90
4727;DHT22;2377;51.734;8.950;2023-08-30T15:54:04;16.70;99.90
4727;DHT22;2377;51.734;8.950;2023-08-30T15:56:31;16.60;99.90
4727;DHT22;2377;51.734;8.950;2023-08-30T15:58:58;16.50;99.90
4727;DHT22;2377;51.734;8.950;2023-08-30T16:01:26;16.20;99.90
4727;DHT22;2377;51.734;8.950;2023-08-30T16:03:53;16.10;99.90
4727;DHT22;2377;51.734;8.950;2023-08-30T16:06:20;16.00;99.90
4727;DHT22;2377;51.734;8.950;2023-08-30T16:08:47;16.00;99.90
4727;DHT22;2377;51.734;8.950;2023-08-30T16:11:16;16.00;99.90
4727;DHT22;2377;51.734;8.950;2023-08-30T16:13:44;16.00;99.90
4727;DHT22;2377;51.734;8.950;2023-08-30T16:16:11;16.00;99.90